Airfield :
LOGIN :

Register | Disclaimer

   EN    FR    IT 

 










Legend :    VFR   Marginal VFR   IFR   Intensive IFR   Very Intensive IFR
Visi :
Ceiling :
>= 8 km
>= 3000ft
5 to 8 km
1000 to 3000 ft
1500m to 5 km
500 to 1000 ft
800 to 1500m
200 to 500 ft
< 800m
< 200 ft
Symbols :   Thunderstorms  Fog  Heavy snow  Heavy precipitations  Wind > 20 kt
SIGMETs :     Misc.  Thunderstorms  Icing  Turbulence  Mountain Waves  Volcanic Ashes






- Airport Elevation : 112 ft
- IATA code : KIR


EIKY - Kerry Farranfore

CURRENT METAR :
  • 181000Z 23009KT 4200 RA BKN009 OVC017 18/17 Q1010

EXPIRED METARs :
  • 180900Z 23010KT 2000 -SHRA BR OVC019 18/17 Q1010
  • 180830Z 23013KT 2200 -SHRA BR SCT009 BKN025 18/17 Q1010
  • 180800Z 22012KT 3400 DZ BR BKN009 BKN025 18/17 Q1010

TAF AMD TAF EIKY
Valid from the 18 at 09:00 until the 18 at 18:00 UTC


180913Z 1809/1818 22012KT 3000 -RA BKN008
TEMPO 1809/1812 1500 RADZ BKN003
BECMG 1810/1812 25015G25KT
BECMG 1812/1814 9999 NSW FEW012 BKN023
BECMG 1813/1815 26012KT



MET'MAP, your aeronautical weather chart ! - Copyright ORBIFLY December 2007 - Disclaimer

ORBIFLY MET'MAP TEAM :

Programming & Development : Alexandra Zaïnal
Original concept : Baudouin d'Aumeries
Technical & hardware support : Manuel Goepfert
Assistance : Marc-Olivier Méhu




SOURCES & CREDITS :

   NOAA